createdAt,value
2018-07-26T07:00:21.059Z,7.40
2018-07-26T07:02:48.214Z,6.40
2018-07-26T07:05:15.334Z,7.77
2018-07-26T07:07:42.412Z,6.80
2018-07-26T07:10:09.572Z,7.27
2018-07-26T07:12:36.844Z,6.70
2018-07-26T07:15:04.875Z,6.87
2018-07-26T07:17:32.205Z,6.63
2018-07-26T07:19:59.296Z,6.23
2018-07-26T07:22:26.483Z,6.90
2018-07-26T07:24:53.536Z,6.60
2018-07-26T07:27:20.600Z,6.40
2018-07-26T07:29:47.713Z,6.20
2018-07-26T07:32:14.833Z,8.40
2018-07-26T07:34:42.450Z,6.23
2018-07-26T07:37:10.147Z,6.63
2018-07-26T07:39:37.488Z,6.43
2018-07-26T07:42:04.651Z,6.97
2018-07-26T07:44:31.734Z,6.73
2018-07-26T07:46:58.796Z,6.10
2018-07-26T07:49:25.922Z,6.33
2018-07-26T07:51:53.023Z,7.30
2018-07-26T07:54:20.100Z,5.90
2018-07-26T07:56:47.180Z,6.03
2018-07-26T07:59:14.261Z,6.90
2018-07-26T08:01:41.627Z,6.10
2018-07-26T08:04:08.785Z,7.27
2018-07-26T08:06:35.884Z,8.33
2018-07-26T08:09:05.172Z,7.50
2018-07-26T08:11:32.300Z,12.70
2018-07-26T08:13:59.781Z,5.77
2018-07-26T08:16:26.889Z,6.63
2018-07-26T08:18:53.971Z,6.37
2018-07-26T08:21:21.118Z,7.30
2018-07-26T08:23:48.159Z,11.50
2018-07-26T08:26:15.307Z,7.37
2018-07-26T08:28:42.412Z,6.10
2018-07-26T08:31:09.528Z,5.90
2018-07-26T08:33:36.613Z,7.07
2018-07-26T08:36:03.724Z,8.67
2018-07-26T08:38:30.855Z,5.93
2018-07-26T08:40:57.894Z,5.50
2018-07-26T08:43:24.989Z,6.67
2018-07-26T08:45:52.065Z,6.40
2018-07-26T08:48:19.271Z,5.87
2018-07-26T08:50:46.561Z,6.40
2018-07-26T08:53:13.650Z,6.00
2018-07-26T08:55:40.756Z,5.77
2018-07-26T08:58:07.929Z,7.63
2018-07-26T09:00:34.972Z,6.00
2018-07-26T09:03:02.103Z,6.53
2018-07-26T09:05:29.261Z,6.40
2018-07-26T09:07:56.370Z,6.27
2018-07-26T09:10:23.485Z,6.57
2018-07-26T09:12:50.668Z,7.00
2018-07-26T09:15:17.990Z,5.90
2018-07-26T09:17:45.112Z,6.43
2018-07-26T09:20:12.201Z,5.70
2018-07-26T09:22:39.286Z,5.47
2018-07-26T09:25:06.338Z,5.50
2018-07-26T09:27:33.436Z,5.40
2018-07-26T09:30:00.500Z,5.80
2018-07-26T09:32:27.580Z,5.23
2018-07-26T09:34:54.677Z,6.00
2018-07-26T09:37:21.704Z,5.50
2018-07-26T09:39:48.739Z,5.90
2018-07-26T09:42:15.810Z,5.93
2018-07-26T09:44:42.921Z,6.20
2018-07-26T09:47:10.023Z,6.37
2018-07-26T09:49:37.175Z,6.00
2018-07-26T09:52:04.208Z,5.60
2018-07-26T09:54:31.251Z,4.97
2018-07-26T09:56:58.348Z,4.73
2018-07-26T09:59:25.468Z,4.80
2018-07-26T10:01:52.544Z,4.30
2018-07-26T10:04:19.824Z,5.20
2018-07-26T10:06:47.083Z,4.30
2018-07-26T10:09:14.144Z,5.40
2018-07-26T10:11:41.445Z,5.20
2018-07-26T10:14:08.534Z,3.50
2018-07-26T10:16:35.563Z,3.40
2018-07-26T10:19:02.663Z,4.03
2018-07-26T10:21:29.711Z,5.27
2018-07-26T10:23:56.742Z,3.80
2018-07-26T10:26:23.878Z,4.90
2018-07-26T10:28:50.966Z,5.70
2018-07-26T10:31:18.171Z,5.20
2018-07-26T10:33:45.277Z,5.80
2018-07-26T10:36:12.308Z,4.90
2018-07-26T10:38:39.430Z,5.00
2018-07-26T10:41:06.528Z,5.97
2018-07-26T10:43:40.352Z,5.03
2018-07-26T10:46:07.469Z,7.87
2018-07-26T10:48:34.568Z,9.70
2018-07-26T10:51:01.726Z,5.07
2018-07-26T10:53:28.808Z,5.00
2018-07-26T10:55:55.852Z,5.13
2018-07-26T10:58:22.899Z,6.60
2018-07-26T11:00:49.983Z,4.60
2018-07-26T11:03:17.049Z,4.40
2018-07-26T11:05:44.121Z,4.37
2018-07-26T11:08:11.193Z,7.10
2018-07-26T11:10:38.310Z,5.20
2018-07-26T11:13:05.397Z,4.07
2018-07-26T11:15:34.242Z,4.47
2018-07-26T11:18:01.744Z,4.03
2018-07-26T11:20:28.872Z,4.40
2018-07-26T11:22:56.439Z,7.20
2018-07-26T11:25:23.593Z,3.60
2018-07-26T11:27:50.705Z,3.70
2018-07-26T11:30:17.902Z,4.33
2018-07-26T11:32:44.973Z,4.87
2018-07-26T11:35:12.254Z,5.00
2018-07-26T11:37:39.414Z,4.33
2018-07-26T11:40:06.510Z,6.20
2018-07-26T11:42:33.835Z,3.60
2018-07-26T11:45:01.142Z,6.00
2018-07-26T11:47:28.257Z,4.73
2018-07-26T11:49:55.378Z,4.00
2018-07-26T11:52:22.521Z,4.33
2018-07-26T11:54:49.701Z,4.43
2018-07-26T11:57:16.968Z,3.70
2018-07-26T11:59:44.028Z,4.20
2018-07-26T12:02:11.120Z,4.40
2018-07-26T12:04:38.204Z,3.90
2018-07-26T12:07:05.249Z,3.30
2018-07-26T12:09:32.386Z,3.27
2018-07-26T12:11:59.773Z,4.37
2018-07-26T12:14:26.854Z,3.67
2018-07-26T12:16:53.881Z,4.80
2018-07-26T12:19:20.931Z,3.87
2018-07-26T12:21:47.959Z,3.50
2018-07-26T12:24:14.996Z,3.40
2018-07-26T12:26:42.113Z,3.87
2018-07-26T12:29:09.220Z,4.33
2018-07-26T12:31:36.304Z,4.60
2018-07-26T12:34:03.417Z,4.10
2018-07-26T12:36:30.489Z,3.87
2018-07-26T12:38:57.565Z,4.17
2018-07-26T12:41:24.646Z,4.40
2018-07-26T12:43:51.711Z,3.83
2018-07-26T12:46:18.755Z,4.33
2018-07-26T13:11:13.529Z,4.30
2018-07-26T13:13:40.972Z,4.40
2018-07-26T13:16:08.074Z,3.97
2018-07-26T13:18:35.268Z,3.93
2018-07-26T13:21:02.396Z,4.20
2018-07-26T13:23:29.624Z,3.90
2018-07-26T13:25:56.697Z,3.50
2018-07-26T13:28:23.781Z,3.77
2018-07-26T13:30:50.931Z,4.50
2018-07-26T13:33:17.993Z,3.80
2018-07-26T13:35:45.460Z,4.30
2018-07-26T13:38:12.736Z,4.20
2018-07-26T13:40:39.841Z,4.27
2018-07-26T13:43:06.917Z,4.27
2018-07-26T13:45:34.045Z,4.40
2018-07-26T13:48:01.389Z,4.33
2018-07-26T13:50:28.807Z,4.03
2018-07-26T13:52:55.935Z,5.47
2018-07-26T13:55:23.050Z,4.60
2018-07-26T13:57:50.141Z,5.00
2018-07-26T14:00:17.234Z,4.60
2018-07-26T14:02:44.317Z,4.73
2018-07-26T14:05:11.818Z,4.73
2018-07-26T14:07:38.909Z,4.20
2018-07-26T14:10:06.437Z,4.27
2018-07-26T14:12:33.739Z,4.10
2018-07-26T14:15:01.033Z,4.30
2018-07-26T14:17:28.155Z,5.33
2018-07-26T14:19:55.220Z,4.73
2018-07-26T14:22:22.385Z,4.97
2018-07-26T14:24:49.712Z,3.80
2018-07-26T14:27:16.962Z,3.97
2018-07-26T14:29:44.036Z,3.93
2018-07-26T14:32:11.172Z,3.83
2018-07-26T14:34:38.253Z,3.70
2018-07-26T14:37:05.422Z,3.90
2018-07-26T14:39:32.635Z,4.27
2018-07-26T14:42:01.874Z,3.70
2018-07-26T14:44:29.103Z,4.47
2018-07-26T14:46:56.201Z,4.13
2018-07-26T14:49:23.662Z,4.33
2018-07-26T14:51:50.825Z,4.13
2018-07-26T14:54:18.187Z,3.97
2018-07-26T14:56:45.708Z,4.00
2018-07-26T14:59:12.834Z,4.60
2018-07-26T15:01:39.912Z,4.90
2018-07-26T15:04:07.088Z,4.70
2018-07-26T15:06:34.301Z,4.07
2018-07-26T15:09:01.416Z,4.23
2018-07-26T15:11:28.537Z,4.90
2018-07-26T15:13:55.658Z,4.53
2018-07-26T15:16:22.904Z,4.10
2018-07-26T15:18:50.138Z,4.47
2018-07-26T15:21:17.319Z,4.20
2018-07-26T15:23:44.379Z,4.30
2018-07-26T15:26:11.715Z,5.10
2018-07-26T15:28:38.817Z,4.67
2018-07-26T15:31:05.904Z,4.30
2018-07-26T15:33:33.126Z,5.67
2018-07-26T15:36:00.270Z,3.60
2018-07-26T15:38:27.357Z,5.00
2018-07-26T15:40:54.494Z,5.37
2018-07-26T15:43:21.544Z,5.63
2018-07-26T15:45:48.919Z,6.70
2018-07-26T15:48:16.041Z,4.80
2018-07-26T15:50:43.129Z,5.20
2018-07-26T15:53:10.389Z,4.50
2018-07-26T15:55:37.870Z,4.80
2018-07-26T15:58:04.975Z,4.90
2018-07-26T16:00:32.107Z,6.40
2018-07-26T16:02:59.217Z,6.83
2018-07-26T16:05:26.527Z,5.47
2018-07-26T16:07:53.682Z,6.73
2018-07-26T16:10:20.878Z,5.33
2018-07-26T16:12:48.075Z,7.10
2018-07-26T16:15:15.193Z,5.00
2018-07-26T16:17:43.911Z,5.77
2018-07-26T16:20:11.255Z,5.77
2018-07-26T16:22:38.410Z,7.60
2018-07-26T16:25:06.224Z,6.07
2018-07-26T16:27:33.270Z,6.07
2018-07-26T16:30:00.459Z,6.50
2018-07-26T16:32:27.639Z,6.13
2018-07-26T16:34:54.709Z,6.50
2018-07-26T16:37:21.748Z,6.20
2018-07-26T16:39:48.940Z,6.90
2018-07-26T16:42:16.128Z,6.67
2018-07-26T16:44:43.172Z,5.67
2018-07-26T16:47:10.237Z,6.27
2018-07-26T16:49:37.402Z,5.83
2018-07-26T16:52:04.487Z,7.37
2018-07-26T16:54:31.907Z,6.00
2018-07-26T16:56:59.115Z,7.27
2018-07-26T16:59:26.221Z,7.40
2018-07-26T17:01:53.321Z,8.33
2018-07-26T17:04:20.433Z,8.07
2018-07-26T17:06:47.505Z,7.80
2018-07-26T17:09:14.632Z,7.87
2018-07-26T17:11:41.768Z,7.53
2018-07-26T17:14:08.815Z,5.90
2018-07-26T17:16:35.883Z,5.87
2018-07-26T17:19:03.049Z,5.73
2018-07-26T17:21:30.207Z,6.90
2018-07-26T17:23:57.407Z,5.60
2018-07-26T17:26:24.624Z,5.80
2018-07-26T17:28:51.869Z,8.27
2018-07-26T17:31:18.964Z,6.17
2018-07-26T17:33:46.018Z,6.90
2018-07-26T17:36:13.209Z,6.37
2018-07-26T17:38:40.294Z,6.50
2018-07-26T17:41:07.388Z,6.47
2018-07-26T17:43:34.967Z,7.23
2018-07-26T17:46:02.024Z,8.20
2018-07-26T17:48:29.089Z,9.93
2018-07-26T17:50:56.219Z,6.93
2018-07-26T17:53:23.343Z,6.30
2018-07-26T17:55:50.422Z,6.30
2018-07-26T17:58:17.527Z,6.60
2018-07-26T18:00:44.685Z,6.50
2018-07-26T18:03:11.829Z,6.50
2018-07-26T18:05:38.997Z,6.80
2018-07-26T18:08:06.260Z,6.80
2018-07-26T18:10:33.451Z,6.07
2018-07-26T18:13:00.936Z,7.37
2018-07-26T18:15:28.312Z,6.97
2018-07-26T18:17:55.461Z,6.60
2018-07-26T18:20:22.652Z,7.20
2018-07-26T18:22:49.774Z,7.73
2018-07-26T18:25:17.014Z,8.10
2018-07-26T18:27:44.124Z,7.80
2018-07-26T18:30:11.214Z,7.93
2018-07-26T18:32:38.430Z,7.93
2018-07-26T18:35:05.644Z,9.23
2018-07-26T18:37:32.747Z,7.50
2018-07-26T18:39:59.882Z,7.30
2018-07-26T18:42:27.303Z,7.53
2018-07-26T18:44:54.470Z,6.57
2018-07-26T18:47:21.635Z,8.13
2018-07-26T18:49:48.882Z,8.37
2018-07-26T18:52:16.062Z,8.87
2018-07-26T18:54:43.283Z,8.60
2018-07-26T18:57:10.399Z,8.27
2018-07-26T18:59:37.460Z,8.53
2018-07-26T19:02:04.669Z,7.20
2018-07-26T19:04:31.722Z,8.23
2018-07-26T19:06:58.766Z,8.80
2018-07-26T19:09:26.385Z,10.40
2018-07-26T19:11:53.662Z,8.60
2018-07-26T19:14:20.861Z,9.17
2018-07-26T19:16:48.892Z,6.80
2018-07-26T19:19:16.681Z,10.83
2018-07-26T19:21:44.360Z,7.50
2018-07-26T19:24:12.140Z,9.27
2018-07-26T19:26:39.378Z,7.10
2018-07-26T19:29:06.581Z,8.83
2018-07-26T19:31:34.342Z,9.13
2018-07-26T19:34:01.492Z,6.73
2018-07-26T19:36:29.339Z,6.33
2018-07-26T19:38:56.521Z,7.23
2018-07-26T19:41:28.825Z,7.30
2018-07-26T19:43:56.191Z,7.30
2018-07-26T19:46:23.755Z,6.83
2018-07-26T19:48:50.954Z,7.47
2018-07-26T19:51:18.857Z,6.90
2018-07-26T19:53:46.399Z,6.67
2018-07-26T19:56:14.184Z,6.23
2018-07-26T19:58:42.146Z,7.43
2018-07-26T20:01:09.660Z,6.10
2018-07-26T20:03:36.806Z,7.57
2018-07-26T20:06:04.878Z,6.73
2018-07-26T20:08:33.011Z,7.03
2018-07-26T20:11:01.358Z,6.57
2018-07-26T20:13:28.718Z,6.80
2018-07-26T20:15:56.252Z,6.63
2018-07-26T20:18:24.040Z,8.47
2018-07-26T20:20:51.803Z,6.77
2018-07-26T20:23:19.344Z,7.23
2018-07-26T20:25:47.292Z,5.93
2018-07-26T20:28:16.134Z,6.20
2018-07-26T20:30:45.711Z,7.47
2018-07-26T20:33:13.675Z,6.73
2018-07-26T20:35:41.417Z,6.40
2018-07-26T20:38:09.254Z,6.73
2018-07-26T20:40:36.634Z,7.47
2018-07-26T20:43:04.585Z,9.13
2018-07-26T20:45:32.045Z,9.30
2018-07-26T20:47:59.508Z,7.00
2018-07-26T20:50:26.740Z,9.00
2018-07-26T20:52:54.697Z,8.77
2018-07-26T20:55:22.414Z,7.30
2018-07-26T20:57:50.000Z,8.50
2018-07-26T21:00:19.062Z,7.97
2018-07-26T21:02:47.110Z,7.50
2018-07-26T21:05:14.849Z,7.80
2018-07-26T21:07:42.256Z,8.63
2018-07-26T21:10:10.222Z,9.33
2018-07-26T21:12:37.634Z,7.70
2018-07-26T21:15:05.571Z,6.80
2018-07-26T21:17:32.849Z,5.90
2018-07-26T21:20:00.007Z,6.50
2018-07-26T21:22:27.296Z,6.67
2018-07-26T21:24:54.420Z,5.97
2018-07-26T21:27:21.533Z,6.07
2018-07-26T21:29:48.597Z,5.43
2018-07-26T21:32:15.734Z,5.77
2018-07-26T21:34:42.920Z,6.23
2018-07-26T21:37:09.988Z,6.37
2018-07-26T21:39:37.378Z,5.83
2018-07-26T21:42:04.507Z,6.90
2018-07-26T21:44:31.689Z,6.73
2018-07-26T21:46:58.778Z,6.77
2018-07-26T21:49:26.091Z,6.60
2018-07-26T21:51:53.742Z,6.53
2018-07-26T21:54:20.889Z,6.43
2018-07-26T21:56:48.024Z,6.10
2018-07-26T21:59:15.181Z,6.40
2018-07-26T22:01:42.274Z,6.57
2018-07-26T22:04:09.423Z,5.80
2018-07-26T22:06:36.571Z,5.57
2018-07-26T22:09:07.556Z,5.90
2018-07-26T22:11:34.625Z,5.57
2018-07-26T22:14:01.783Z,5.43
2018-07-26T22:16:28.757Z,5.63
2018-07-26T22:18:56.348Z,5.87
2018-07-26T22:21:23.428Z,6.03
2018-07-26T22:23:50.472Z,6.00
2018-07-26T22:26:17.572Z,6.20
2018-07-26T22:28:44.638Z,6.47
2018-07-26T22:31:11.597Z,6.30
2018-07-26T22:33:38.645Z,6.20
2018-07-26T22:36:05.720Z,6.43
2018-07-26T22:38:32.809Z,6.03
2018-07-26T22:40:59.842Z,6.00
2018-07-26T22:43:26.855Z,6.57
2018-07-26T22:45:53.928Z,5.97
2018-07-26T22:48:21.007Z,6.67
2018-07-26T22:50:48.092Z,6.37
2018-07-26T22:53:15.182Z,5.70
2018-07-26T22:55:42.226Z,6.33
2018-07-26T22:58:09.247Z,6.33
2018-07-26T23:00:36.228Z,7.10
2018-07-26T23:03:03.267Z,6.67
2018-07-26T23:05:30.616Z,7.07
2018-07-26T23:07:57.626Z,6.07
2018-07-26T23:10:24.665Z,6.40
2018-07-26T23:12:51.697Z,7.13
2018-07-26T23:15:18.819Z,7.10
2018-07-26T23:17:45.788Z,6.37
2018-07-26T23:20:12.822Z,7.10
2018-07-26T23:22:40.010Z,7.90
2018-07-26T23:25:07.701Z,6.70
2018-07-26T23:27:35.026Z,7.33
2018-07-26T23:30:02.179Z,7.53
2018-07-26T23:32:29.209Z,8.00
2018-07-26T23:34:56.221Z,8.07
2018-07-26T23:37:23.225Z,7.33
2018-07-26T23:39:50.362Z,7.67
2018-07-26T23:42:17.336Z,7.20
2018-07-26T23:44:44.295Z,7.67
2018-07-26T23:47:11.290Z,8.07
2018-07-26T23:49:38.563Z,7.57
2018-07-26T23:52:05.533Z,7.93
2018-07-26T23:54:32.516Z,7.97
2018-07-26T23:56:59.464Z,8.60
2018-07-26T23:59:26.412Z,8.80
